Time;durP1;ratioP1;P1;durP2;ratioP2;P2;SDS_P1;SDS_P2;PMS_P1;PMS_P2;Temp;Humidity;BMP_temperature;BMP_pressure;BME280_temperature;BME280_humidity;BME280_pressure;Samples;Min_cycle;Max_cycle;Signal;HPM_P1;HPM_P2
2023/03/16 00:00:24;;;;;;;28.50;14.70;;;;;;;-1.47;79.39;100667.33;102533;279;105156;-56
2023/03/16 00:03:24;;;;;;;25.30;14.50;;;;;;;-1.46;79.50;100666.05;102490;279;113978;-56
2023/03/16 00:06:05;;;;;;;31.90;15.20;;;;;;;-1.43;79.55;100662.86;102520;279;93642;-59
2023/03/16 00:08:48;;;;;;;27.30;14.80;;;;;;;-1.45;79.54;100668.45;102518;279;98477;-58
2023/03/16 00:11:31;;;;;;;32.80;16.60;;;;;;;-1.51;79.56;100669.58;102513;279;119489;-59
2023/03/16 00:14:10;;;;;;;34.80;16.10;;;;;;;-1.59;79.57;100668.20;102499;279;105491;-59
2023/03/16 00:16:48;;;;;;;33.80;15.90;;;;;;;-1.65;79.73;100663.86;102483;279;114204;-60
2023/03/16 00:19:28;;;;;;;35.80;15.70;;;;;;;-1.68;79.68;100668.64;102526;279;94942;-60
2023/03/16 00:22:07;;;;;;;34.40;16.00;;;;;;;-1.69;79.92;100666.92;102530;279;97834;-56
2023/03/16 00:24:44;;;;;;;37.00;17.90;;;;;;;-1.65;79.96;100671.76;102545;279;118384;-59
2023/03/16 00:27:22;;;;;;;34.90;16.90;;;;;;;-1.64;79.87;100677.93;102512;279;104764;-61
2023/03/16 00:29:57;;;;;;;34.80;17.80;;;;;;;-1.62;79.89;100680.44;102497;279;115163;-57
2023/03/16 00:32:40;;;;;;;35.00;16.20;;;;;;;-1.61;80.01;100685.48;102508;279;94800;-57
2023/03/16 00:35:18;;;;;;;36.30;16.70;;;;;;;-1.65;79.98;100689.23;102542;279;97349;-60
2023/03/16 00:37:57;;;;;;;33.70;16.10;;;;;;;-1.65;80.03;100690.00;102534;279;120825;-60
2023/03/16 00:40:39;;;;;;;34.30;16.80;;;;;;;-1.72;80.08;100691.87;102515;279;106477;-59
2023/03/16 00:43:18;;;;;;;35.40;16.80;;;;;;;-1.79;80.11;100691.81;102506;279;113626;-59
2023/03/16 00:46:05;;;;;;;34.80;16.00;;;;;;;-1.80;80.09;100696.98;102508;279;96041;-63
2023/03/16 00:48:45;;;;;;;27.40;15.60;;;;;;;-1.85;80.03;100696.96;102556;279;97642;-62
2023/03/16 00:51:22;;;;;;;35.10;15.90;;;;;;;-1.92;80.08;100696.60;102604;279;121020;-60
2023/03/16 00:53:58;;;;;;;34.20;16.30;;;;;;;-1.95;80.16;100696.08;102513;279;105439;-61
2023/03/16 00:56:37;;;;;;;34.00;15.70;;;;;;;-1.95;80.19;100692.70;102504;279;114416;-60
2023/03/16 00:59:20;;;;;;;32.50;15.20;;;;;;;-1.96;80.13;100694.90;102497;279;94753;-60
2023/03/16 01:02:02;;;;;;;27.80;15.30;;;;;;;-1.98;80.07;100692.00;102532;279;97054;-56
2023/03/16 01:04:40;;;;;;;35.40;16.40;;;;;;;-2.01;80.19;100693.69;102525;279;120226;-56
2023/03/16 01:07:16;;;;;;;33.80;15.80;;;;;;;-2.06;80.23;100693.27;102560;279;104479;-54
2023/03/16 01:09:51;;;;;;;27.30;14.70;;;;;;;-2.11;80.14;100696.25;102573;279;114281;-57
2023/03/16 01:12:28;;;;;;;31.80;15.80;;;;;;;-2.19;80.19;100695.41;102503;279;95547;-55
2023/03/16 01:15:05;;;;;;;31.80;14.70;;;;;;;-2.25;80.14;100695.78;102521;279;96876;-59
2023/03/16 01:17:53;;;;;;;25.10;13.90;;;;;;;-2.28;80.16;100698.66;102533;279;119768;-59
2023/03/16 01:20:32;;;;;;;25.80;14.00;;;;;;;-2.33;80.20;100699.91;102381;279;105400;-61
2023/03/16 01:23:12;;;;;;;27.10;12.30;;;;;;;-2.38;80.19;100701.28;102495;279;114199;-61
2023/03/16 01:25:52;;;;;;;26.20;13.80;;;;;;;-2.43;80.24;100702.09;102510;279;95511;-55
2023/03/16 01:28:33;;;;;;;30.10;15.10;;;;;;;-2.45;80.25;100700.28;102535;279;98174;-56
2023/03/16 01:31:11;;;;;;;29.10;14.10;;;;;;;-2.48;80.30;100707.06;102508;279;120650;-56
2023/03/16 01:33:52;;;;;;;28.50;14.10;;;;;;;-2.50;80.34;100709.45;102555;279;104975;-56
2023/03/16 01:36:26;;;;;;;26.90;13.90;;;;;;;-2.52;80.37;100709.73;102538;279;115167;-58
2023/03/16 01:39:05;;;;;;;30.50;15.10;;;;;;;-2.56;80.41;100712.50;102509;279;95675;-59
2023/03/16 01:41:43;;;;;;;27.70;14.00;;;;;;;-2.61;80.51;100715.80;102531;279;97594;-59
2023/03/16 01:44:33;;;;;;;29.60;13.60;;;;;;;-2.66;80.49;100718.59;102533;279;118802;-58
2023/03/16 01:47:15;;;;;;;28.50;14.10;;;;;;;-2.68;80.58;100718.23;102556;279;104302;-60
2023/03/16 01:49:53;;;;;;;31.00;14.00;;;;;;;-2.71;80.66;100721.92;102410;279;114397;-58
2023/03/16 01:52:36;;;;;;;26.20;13.30;;;;;;;-2.69;80.71;100726.02;102519;279;95399;-58
2023/03/16 01:55:15;;;;;;;28.30;13.40;;;;;;;-2.66;80.71;100725.30;102485;279;97739;-61
2023/03/16 01:57:58;;;;;;;27.00;12.90;;;;;;;-2.67;80.69;100726.24;102517;279;119283;-62
2023/03/16 02:00:36;;;;;;;;;;;;;;;-2.68;80.82;100724.73;102533;279;104870;-55
2023/03/16 02:03:21;;;;;;;27.70;12.20;;;;;;;-2.72;80.71;100726.40;102504;279;114981;-55
2023/03/16 02:06:02;;;;;;;23.80;12.00;;;;;;;-2.77;80.70;100726.86;102490;279;92491;-55
2023/03/16 02:08:42;;;;;;;23.40;12.40;;;;;;;-2.82;80.77;100725.29;102481;279;98938;-54
2023/03/16 02:11:21;;;;;;;26.30;11.90;;;;;;;-2.87;80.79;100722.30;102491;279;120658;-56
2023/03/16 02:14:07;;;;;;;26.90;13.10;;;;;;;-2.91;80.87;100725.13;102516;279;106167;-57
2023/03/16 02:16:54;;;;;;;26.00;12.10;;;;;;;-2.94;80.96;100724.83;102484;279;114718;-58
2023/03/16 02:19:44;;;;;;;21.60;10.70;;;;;;;-2.95;81.02;100727.52;102505;279;94930;-59
2023/03/16 02:22:23;;;;;;;24.80;12.00;;;;;;;-2.95;81.05;100727.85;102526;279;96344;-55
2023/03/16 02:24:58;;;;;;;23.60;11.60;;;;;;;-2.95;81.09;100730.52;102519;279;120587;-56
2023/03/16 02:27:41;;;;;;;23.30;11.80;;;;;;;-2.93;81.13;100728.64;102532;279;104672;-56
2023/03/16 02:30:30;;;;;;;24.80;11.80;;;;;;;-2.95;81.20;100728.94;102516;279;114284;-59
2023/03/16 02:33:17;;;;;;;24.10;11.50;;;;;;;-2.96;81.11;100731.60;102498;279;95081;-59
2023/03/16 02:35:54;;;;;;;23.20;11.40;;;;;;;-2.98;81.20;100740.69;102546;279;96518;-59
2023/03/16 02:38:31;;;;;;;;;;;;;;;-3.01;81.25;100745.64;102546;279;121353;-59
2023/03/16 02:41:16;;;;;;;20.80;10.50;;;;;;;-3.05;81.21;100744.15;102536;279;105740;-56
2023/03/16 02:43:58;;;;;;;22.60;11.20;;;;;;;-3.10;81.29;100746.22;102497;279;113671;-55
2023/03/16 02:46:36;;;;;;;25.60;12.00;;;;;;;-3.15;81.32;100749.36;102517;279;95065;-56
2023/03/16 02:49:16;;;;;;;;;;;;;;;-3.18;81.38;100753.27;102521;279;95700;-57
2023/03/16 02:51:53;;;;;;;26.10;11.90;;;;;;;-3.21;81.44;100759.59;102491;279;121432;-56
2023/03/16 02:54:37;;;;;;;20.50;11.30;;;;;;;-3.24;81.58;100766.27;102488;279;105671;-57
2023/03/16 02:57:16;;;;;;;22.10;11.30;;;;;;;-3.26;81.50;100765.69;102497;279;115028;-61
2023/03/16 02:59:53;;;;;;;27.40;11.90;;;;;;;-3.25;81.62;100772.70;102545;279;95307;-59
2023/03/16 03:02:40;;;;;;;23.80;12.00;;;;;;;-3.24;81.72;100769.51;102502;279;97260;-61
2023/03/16 03:05:26;;;;;;;22.60;11.50;;;;;;;-3.28;81.66;100771.50;102528;279;121448;-56
2023/03/16 03:08:06;;;;;;;24.20;11.50;;;;;;;-3.30;81.77;100775.45;102505;279;104735;-56
2023/03/16 03:10:44;;;;;;;23.30;11.20;;;;;;;-3.28;81.79;100772.31;102508;268;115030;-55
2023/03/16 03:13:20;;;;;;;25.00;12.40;;;;;;;-3.28;81.87;100775.33;102487;267;93898;-55
2023/03/16 03:15:54;;;;;;;27.90;11.90;;;;;;;-3.29;81.91;100774.17;102542;279;97851;-60
2023/03/16 03:18:38;;;;;;;25.80;12.10;;;;;;;-3.30;81.91;100780.10;102522;279;121425;-60
2023/03/16 03:21:17;;;;;;;27.00;12.90;;;;;;;-3.32;81.94;100781.25;102510;279;105625;-59
2023/03/16 03:23:54;;;;;;;27.50;12.80;;;;;;;-3.36;81.94;100786.21;102526;279;114618;-59
2023/03/16 03:26:36;;;;;;;30.20;13.20;;;;;;;-3.37;82.08;100790.55;102522;279;95381;-58
2023/03/16 03:29:13;;;;;;;23.50;13.40;;;;;;;-3.39;82.07;100794.33;102499;279;97530;-58
2023/03/16 03:31:51;;;;;;;30.90;14.00;;;;;;;-3.37;82.16;100792.78;102513;279;121918;-55
2023/03/16 03:34:32;;;;;;;27.30;12.90;;;;;;;-3.36;82.28;100796.79;102493;279;105613;-55
2023/03/16 03:37:10;;;;;;;24.70;13.30;;;;;;;-3.32;82.28;100795.16;102498;279;113658;-59
2023/03/16 03:39:48;;;;;;;23.50;12.80;;;;;;;-3.30;82.36;100801.21;102542;287;94322;-56
2023/03/16 03:42:29;;;;;;;24.20;13.00;;;;;;;-3.28;82.34;100799.63;102504;279;98349;-54
2023/03/16 03:45:11;;;;;;;28.50;14.10;;;;;;;-3.29;82.37;100803.95;102517;279;120699;-56
2023/03/16 03:47:53;;;;;;;27.90;14.90;;;;;;;-3.23;82.65;100803.55;102549;279;106151;-56
2023/03/16 03:50:34;;;;;;;33.50;14.40;;;;;;;-3.16;82.66;100808.41;102468;279;115388;-61
2023/03/16 03:53:18;;;;;;;32.30;14.00;;;;;;;-3.18;82.71;100813.65;102478;279;95468;-61
2023/03/16 03:55:55;;;;;;;28.20;14.80;;;;;;;-3.21;82.73;100818.59;102504;279;97014;-60
2023/03/16 03:58:36;;;;;;;27.80;13.80;;;;;;;-3.25;82.68;100819.36;102495;279;120587;-61
2023/03/16 04:01:14;;;;;;;31.30;15.00;;;;;;;-3.29;82.59;100820.46;102540;279;105560;-56
2023/03/16 04:04:00;;;;;;;26.60;13.90;;;;;;;-3.31;82.57;100824.32;102487;279;115196;-55
2023/03/16 04:06:41;;;;;;;28.50;14.00;;;;;;;-3.33;82.60;100821.98;102511;279;96570;-56
2023/03/16 04:09:22;;;;;;;26.90;13.20;;;;;;;-3.37;82.64;100824.15;102527;279;98075;-57
2023/03/16 04:12:01;;;;;;;29.00;13.70;;;;;;;-3.38;82.60;100827.91;102518;279;121672;-57
2023/03/16 04:14:40;;;;;;;25.80;13.60;;;;;;;-3.39;82.67;100829.53;102488;279;105485;-57
2023/03/16 04:17:19;;;;;;;25.10;13.20;;;;;;;-3.44;82.73;100829.48;102515;279;114398;-56
2023/03/16 04:19:59;;;;;;;30.00;14.20;;;;;;;-3.47;82.71;100834.04;102507;279;95401;-62
2023/03/16 04:22:38;;;;;;;23.30;12.50;;;;;;;-3.51;82.76;100831.85;102522;279;98023;-63
2023/03/16 04:25:14;;;;;;;25.80;13.80;;;;;;;-3.57;82.75;100833.80;102551;279;119581;-59
2023/03/16 04:27:53;;;;;;;25.60;13.70;;;;;;;-3.61;82.85;100832.61;102509;279;104518;-59
2023/03/16 04:30:33;;;;;;;22.60;12.90;;;;;;;-3.60;82.77;100833.44;102457;279;113817;-59
2023/03/16 04:33:14;;;;;;;25.50;12.80;;;;;;;-3.59;82.87;100833.22;102516;279;95697;-59
2023/03/16 04:35:55;;;;;;;30.00;13.80;;;;;;;-3.60;82.92;100836.77;102571;279;98200;-56
2023/03/16 04:38:33;;;;;;;27.40;12.50;;;;;;;-3.61;82.99;100837.85;102471;279;120314;-56
2023/03/16 04:41:15;;;;;;;25.10;13.20;;;;;;;-3.58;82.97;100838.78;102530;279;106022;-56
2023/03/16 04:43:56;;;;;;;23.30;12.80;;;;;;;-3.56;83.07;100839.70;102502;279;114788;-55
2023/03/16 04:46:38;;;;;;;24.80;12.30;;;;;;;-3.54;83.06;100844.69;102518;279;92823;-62
2023/03/16 04:49:26;;;;;;;25.30;13.70;;;;;;;-3.57;83.07;100843.98;102508;279;99231;-61
2023/03/16 04:52:05;;;;;;;23.30;12.30;;;;;;;-3.58;83.14;100849.13;102514;279;120095;-57
2023/03/16 04:54:41;;;;;;;25.60;13.40;;;;;;;-3.60;83.16;100852.44;102498;279;105542;-58
2023/03/16 04:57:22;;;;;;;24.80;12.50;;;;;;;-3.63;83.13;100857.17;102481;279;115010;-57
2023/03/16 05:00:08;;;;;;;28.10;13.40;;;;;;;-3.65;83.21;100865.58;102494;279;95951;-58
2023/03/16 05:02:53;;;;;;;20.90;10.80;;;;;;;-3.63;83.20;100866.02;102494;279;97402;-57
2023/03/16 05:05:39;;;;;;;29.30;12.80;;;;;;;-3.57;83.36;100872.85;102522;279;120661;-59
2023/03/16 05:08:21;;;;;;;20.50;11.20;;;;;;;-3.44;83.42;100868.94;102546;279;105205;-60
2023/03/16 05:11:00;;;;;;;26.40;13.00;;;;;;;-3.35;83.59;100869.41;102457;279;114322;-56
2023/03/16 05:13:39;;;;;;;25.80;13.60;;;;;;;-3.24;83.57;100870.20;102527;279;92364;-56
2023/03/16 05:16:19;;;;;;;26.00;13.50;;;;;;;-3.15;83.54;100864.02;102586;279;96814;-62
2023/03/16 05:19:04;;;;;;;28.20;13.90;;;;;;;-3.08;83.57;100869.95;102574;279;119023;-61
2023/03/16 05:21:45;;;;;;;27.20;14.20;;;;;;;-3.02;83.49;100870.96;102494;279;105085;-58
2023/03/16 05:24:22;;;;;;;27.90;12.40;;;;;;;-2.96;83.52;100874.48;102510;279;114482;-57
2023/03/16 05:27:02;;;;;;;23.70;12.90;;;;;;;-2.89;83.61;100873.36;102475;279;95960;-57
2023/03/16 05:29:39;;;;;;;30.30;13.70;;;;;;;-2.77;83.62;100875.30;102535;279;97105;-58
2023/03/16 05:32:18;;;;;;;25.50;12.40;;;;;;;-2.63;83.76;100879.67;102518;279;120023;-61
2023/03/16 05:34:55;;;;;;;29.90;13.80;;;;;;;-2.51;83.84;100879.29;102490;279;105550;-55
2023/03/16 05:37:33;;;;;;;24.80;13.60;;;;;;;-2.42;83.88;100879.98;102514;279;112922;-56
2023/03/16 05:40:15;;;;;;;27.50;12.60;;;;;;;-2.32;83.86;100886.21;102537;279;95330;-57
2023/03/16 05:42:59;;;;;;;27.30;12.70;;;;;;;-2.19;83.92;100886.48;102537;279;97299;-57
2023/03/16 05:45:34;;;;;;;25.70;13.60;;;;;;;-2.09;84.01;100886.31;102485;279;120377;-61
2023/03/16 05:48:10;;;;;;;25.50;14.00;;;;;;;-1.96;84.04;100883.21;102507;279;106057;-61
2023/03/16 05:50:48;;;;;;;24.90;12.80;;;;;;;-1.80;84.09;100882.19;102533;279;113675;-55
2023/03/16 05:53:29;;;;;;;29.60;13.50;;;;;;;-0.97;84.71;100884.70;102531;279;93207;-56
2023/03/16 05:56:08;;;;;;;28.40;14.90;;;;;;;0.88;85.05;100884.30;102575;279;97414;-54
2023/03/16 05:58:52;;;;;;;29.40;13.30;;;;;;;3.18;83.50;100878.56;102514;279;120910;-56
2023/03/16 06:01:29;;;;;;;24.20;13.50;;;;;;;5.04;82.02;100874.63;102558;279;105328;-58
2023/03/16 06:04:10;;;;;;;25.90;13.90;;;;;;;6.56;80.83;100873.20;102572;279;114863;-59
2023/03/16 06:06:50;;;;;;;24.00;14.30;;;;;;;7.42;79.24;100877.96;102563;279;93430;-62
2023/03/16 06:09:31;;;;;;;24.40;14.90;;;;;;;8.13;77.81;100878.44;102505;279;96915;-57
2023/03/16 06:12:12;;;;;;;23.50;14.30;;;;;;;8.76;76.85;100867.67;102526;279;120194;-57
2023/03/16 06:14:47;;;;;;;25.00;15.30;;;;;;;9.26;75.04;100869.86;102549;279;104076;-59
2023/03/16 06:17:24;;;;;;;23.40;14.60;;;;;;;9.67;74.70;100871.63;102558;268;115292;-60
2023/03/16 06:20:10;;;;;;;26.40;15.20;;;;;;;10.39;73.48;100874.45;102509;279;94876;-58
2023/03/16 06:22:51;;;;;;;22.20;15.20;;;;;;;10.31;71.52;100874.48;102513;279;97445;-58
2023/03/16 06:25:35;;;;;;;23.10;15.40;;;;;;;10.70;70.59;100875.52;102523;279;121121;-61
2023/03/16 06:28:15;;;;;;;22.90;14.60;;;;;;;10.42;70.35;100879.42;102525;279;104779;-61
2023/03/16 06:31:02;;;;;;;24.10;15.20;;;;;;;10.67;69.63;100879.50;102531;279;114920;-56
2023/03/16 06:33:45;;;;;;;30.20;16.20;;;;;;;9.90;68.69;100882.36;102532;279;94950;-57
2023/03/16 06:36:24;;;;;;;27.10;15.70;;;;;;;8.85;68.09;100884.59;102526;279;97682;-58
2023/03/16 06:39:08;;;;;;;27.30;16.40;;;;;;;8.51;68.69;100887.09;102480;279;120346;-58
2023/03/16 06:41:45;;;;;;;27.50;16.30;;;;;;;8.35;68.44;100890.81;102384;279;106570;-63
2023/03/16 06:44:20;;;;;;;23.60;15.90;;;;;;;8.99;68.20;100891.70;102516;279;115468;-62
2023/03/16 06:47:04;;;;;;;22.10;16.30;;;;;;;9.08;67.51;100884.32;102524;279;94303;-58
2023/03/16 06:49:46;;;;;;;26.50;16.70;;;;;;;9.46;66.96;100891.12;102507;279;96815;-59
2023/03/16 06:52:25;;;;;;;22.00;15.10;;;;;;;9.67;65.82;100888.98;102506;279;121312;-58
2023/03/16 06:55:07;;;;;;;28.10;15.90;;;;;;;10.01;65.76;100891.01;102487;279;104815;-57
2023/03/16 06:57:43;;;;;;;25.80;15.90;;;;;;;10.48;65.09;100892.12;102554;279;114219;-62
2023/03/16 07:00:20;;;;;;;27.30;17.30;;;;;;;10.79;64.69;100895.36;102553;279;94160;-56
2023/03/16 07:02:55;;;;;;;25.00;16.00;;;;;;;10.83;64.22;100896.86;102493;279;98100;-54
2023/03/16 07:05:36;;;;;;;24.80;17.50;;;;;;;11.11;63.63;100902.88;102541;279;120464;-58
2023/03/16 07:08:28;;;;;;;25.70;16.00;;;;;;;11.20;62.69;100909.12;102475;278;105111;-60
2023/03/16 07:11:11;;;;;;;26.00;16.20;;;;;;;11.08;62.06;100912.55;102529;279;113811;-61
2023/03/16 07:13:48;;;;;;;25.20;16.10;;;;;;;10.60;61.83;100917.35;102538;279;94831;-60
2023/03/16 07:16:23;;;;;;;24.60;16.40;;;;;;;10.15;61.63;100917.89;102518;279;96993;-62
2023/03/16 07:19:02;;;;;;;25.20;15.80;;;;;;;9.70;62.21;100923.65;102489;279;120218;-62
2023/03/16 07:21:44;;;;;;;23.60;16.10;;;;;;;10.39;62.36;100919.73;102529;279;103236;-63
2023/03/16 07:24:32;;;;;;;21.80;15.20;;;;;;;11.29;61.51;100920.54;102519;279;113582;-63
2023/03/16 07:27:10;;;;;;;24.10;15.80;;;;;;;11.93;60.25;100920.71;102496;279;92381;-57
2023/03/16 07:29:51;;;;;;;22.80;16.10;;;;;;;12.97;59.25;100913.38;102512;279;97401;-59
2023/03/16 07:32:31;;;;;;;22.00;15.70;;;;;;;13.13;58.63;100916.39;102557;279;120413;-61
2023/03/16 07:35:11;;;;;;;23.20;16.80;;;;;;;13.45;58.68;100914.66;101934;279;818967;-62
2023/03/16 07:37:54;;;;;;;23.20;16.40;;;;;;;13.86;57.80;100914.40;102406;279;113856;-62
2023/03/16 07:40:52;;;;;;;23.00;15.90;;;;;;;15.09;57.18;100913.92;102525;279;93946;-57
2023/03/16 07:43:47;;;;;;;23.00;16.30;;;;;;;15.96;54.70;100913.96;102454;279;96245;-56
2023/03/16 07:46:32;;;;;;;21.20;16.10;;;;;;;16.57;54.25;100911.05;102508;279;120670;-61
2023/03/16 07:49:11;;;;;;;21.70;15.20;;;;;;;17.07;53.91;100912.79;102506;279;105359;-61
2023/03/16 07:51:52;;;;;;;20.50;15.80;;;;;;;17.80;53.25;100910.40;102518;279;112795;-61
2023/03/16 07:54:34;;;;;;;22.20;17.00;;;;;;;18.30;51.72;100913.63;102516;279;93697;-62
2023/03/16 07:57:10;;;;;;;22.00;16.50;;;;;;;17.96;51.74;100916.30;102529;279;96013;-58
2023/03/16 07:59:57;;;;;;;21.70;16.00;;;;;;;18.38;50.44;100914.80;102530;279;119245;-62
2023/03/16 08:02:36;;;;;;;18.50;15.30;;;;;;;19.20;49.44;100913.67;102515;279;105074;-61
2023/03/16 08:05:20;;;;;;;21.30;15.70;;;;;;;19.50;49.23;100912.14;102487;279;113147;-58
2023/03/16 08:07:57;;;;;;;20.80;15.10;;;;;;;19.89;48.40;100911.96;102485;279;93228;-59
2023/03/16 08:10:35;;;;;;;19.80;14.80;;;;;;;20.15;46.75;100915.00;102560;279;96512;-60
2023/03/16 08:13:19;;;;;;;18.70;15.40;;;;;;;20.66;45.10;100914.84;102485;279;120304;-59
2023/03/16 08:16:00;;;;;;;17.80;14.60;;;;;;;20.92;45.46;100915.53;102531;279;105258;-62
2023/03/16 08:18:38;;;;;;;17.80;14.80;;;;;;;20.52;45.49;100917.42;102391;279;113801;-66
2023/03/16 08:21:20;;;;;;;20.80;15.80;;;;;;;20.71;45.43;100920.27;102526;279;93659;-57
2023/03/16 08:24:07;;;;;;;17.70;14.20;;;;;;;20.51;45.16;100921.27;102507;279;97655;-58
2023/03/16 08:26:46;;;;;;;15.70;12.90;;;;;;;20.86;44.52;100924.36;102526;279;120710;-64
2023/03/16 08:29:26;;;;;;;16.80;12.60;;;;;;;21.31;43.46;100918.55;102506;279;105306;-62
2023/03/16 08:32:07;;;;;;;17.10;13.60;;;;;;;21.28;43.43;100914.34;102516;279;112905;-61
2023/03/16 08:34:46;;;;;;;15.40;13.20;;;;;;;21.57;42.19;100910.63;102519;279;94067;-60
2023/03/16 08:37:27;;;;;;;18.40;13.40;;;;;;;21.55;41.57;100912.30;102552;279;96423;-57
2023/03/16 08:40:12;;;;;;;16.70;12.20;;;;;;;21.47;41.70;100917.98;102512;279;119664;-58
2023/03/16 08:42:54;;;;;;;17.60;13.90;;;;;;;21.77;40.38;100916.96;102548;279;103217;-58
2023/03/16 08:45:42;;;;;;;16.00;13.30;;;;;;;20.79;41.02;100929.23;102513;279;113900;-58
2023/03/16 08:48:23;;;;;;;19.50;14.10;;;;;;;20.83;40.82;100928.37;102540;279;93975;-58
2023/03/16 08:51:03;;;;;;;17.20;14.00;;;;;;;21.28;39.55;100930.83;102576;279;96892;-61
2023/03/16 08:53:46;;;;;;;16.40;14.20;;;;;;;21.04;39.12;100931.44;102504;279;119326;-62
2023/03/16 08:56:27;;;;;;;19.20;14.90;;;;;;;21.04;39.27;100936.23;102534;279;104423;-63
2023/03/16 08:59:09;;;;;;;17.10;14.80;;;;;;;21.09;38.39;100941.83;102499;271;113732;-64
2023/03/16 09:01:53;;;;;;;17.50;14.20;;;;;;;20.98;39.31;100946.66;102540;279;93336;-62
2023/03/16 09:04:37;;;;;;;15.60;13.60;;;;;;;21.01;39.29;100944.73;102505;279;96638;-63
2023/03/16 09:07:23;;;;;;;17.80;13.40;;;;;;;21.41;38.67;100946.73;102514;279;119901;-62
2023/03/16 09:10:01;;;;;;;15.10;12.90;;;;;;;20.93;38.58;100950.95;102546;279;105071;-60
2023/03/16 09:12:39;;;;;;;16.50;12.10;;;;;;;20.67;38.37;100947.52;102515;279;113722;-62
2023/03/16 09:15:22;;;;;;;12.30;10.30;;;;;;;20.66;38.97;100943.02;102541;279;93452;-55
2023/03/16 09:18:02;;;;;;;14.10;9.60;;;;;;;20.85;37.17;100944.99;102528;279;96675;-58
2023/03/16 09:20:42;;;;;;;9.90;8.20;;;;;;;20.79;37.78;100943.45;102542;279;120279;-57
2023/03/16 09:23:20;;;;;;;11.00;7.50;;;;;;;20.49;37.55;100940.69;102516;279;104949;-57
2023/03/16 09:26:06;;;;;;;9.20;6.70;;;;;;;19.80;36.64;100938.80;102479;279;114131;-56
2023/03/16 09:28:50;;;;;;;7.70;6.70;;;;;;;20.05;37.75;100940.83;102521;279;93494;-56
2023/03/16 09:31:31;;;;;;;10.40;7.00;;;;;;;20.84;37.79;100938.27;102550;279;97213;-62
2023/03/16 09:34:10;;;;;;;10.60;7.50;;;;;;;20.90;36.32;100944.51;102512;279;120412;-62
2023/03/16 09:36:52;;;;;;;8.10;5.90;;;;;;;20.93;35.82;100940.33;102502;279;105538;-57
2023/03/16 09:39:37;;;;;;;9.50;6.20;;;;;;;21.09;35.21;100940.13;102540;279;114838;-56
2023/03/16 09:42:21;;;;;;;8.70;6.80;;;;;;;20.89;34.89;100940.35;102490;279;93371;-62
2023/03/16 09:45:14;;;;;;;9.70;6.50;;;;;;;20.52;34.34;100936.60;102557;279;97395;-57
2023/03/16 09:48:19;;;;;;;10.60;7.30;;;;;;;20.35;35.79;100936.08;102494;279;121464;-57
2023/03/16 09:51:06;;;;;;;10.70;7.20;;;;;;;20.32;36.25;100938.70;102548;279;104046;-62
2023/03/16 09:53:50;;;;;;;9.40;7.00;;;;;;;20.26;35.24;100939.30;102372;279;114522;-62
2023/03/16 09:56:36;;;;;;;10.20;6.30;;;;;;;19.60;35.52;100939.98;102547;279;93799;-62
2023/03/16 09:59:17;;;;;;;10.50;6.40;;;;;;;18.97;34.30;100943.70;102516;279;95965;-62
2023/03/16 10:02:30;;;;;;;10.40;6.20;;;;;;;17.61;33.47;100946.73;102546;279;120604;-62
2023/03/16 10:05:20;;;;;;;9.80;5.90;;;;;;;16.54;35.84;100951.92;102558;279;105826;-63
2023/03/16 10:08:14;;;;;;;9.20;5.90;;;;;;;16.16;36.72;100945.46;102508;279;113521;-63
2023/03/16 10:11:12;;;;;;;9.80;6.60;;;;;;;15.85;37.35;100950.27;102510;279;93605;-58
2023/03/16 10:13:53;;;;;;;9.30;5.60;;;;;;;15.26;37.90;100943.58;102499;279;97163;-59
2023/03/16 10:16:40;;;;;;;8.50;5.20;;;;;;;14.97;37.96;100946.65;102510;279;121473;-58
2023/03/16 10:19:31;;;;;;;10.30;6.10;;;;;;;14.18;39.10;100955.64;102519;279;104721;-58
2023/03/16 10:22:20;;;;;;;9.60;6.60;;;;;;;13.41;39.70;100958.02;102466;279;113626;-62
2023/03/16 10:25:13;;;;;;;10.00;6.00;;;;;;;12.85;40.38;100969.00;102409;279;93309;-59
2023/03/16 10:27:59;;;;;;;9.30;6.40;;;;;;;12.42;41.00;100972.89;102535;279;96089;-59
2023/03/16 10:30:41;;;;;;;12.10;6.20;;;;;;;11.92;41.65;100974.73;102419;279;118512;-58
2023/03/16 10:33:25;;;;;;;9.50;5.90;;;;;;;11.58;42.36;100971.88;102539;279;104325;-58
2023/03/16 10:36:12;;;;;;;12.80;7.50;;;;;;;11.55;42.66;100972.25;102522;279;112962;-63
2023/03/16 10:38:54;;;;;;;9.20;5.50;;;;;;;11.42;42.89;100970.92;102513;279;92764;-61
2023/03/16 10:41:33;;;;;;;12.10;6.50;;;;;;;11.21;42.60;100970.49;102418;279;96574;-61
2023/03/16 10:44:28;;;;;;;10.90;6.30;;;;;;;10.71;43.27;100973.66;102505;279;120870;-61
2023/03/16 10:47:07;;;;;;;9.80;5.70;;;;;;;10.41;43.50;100976.48;102595;279;104637;-57
2023/03/16 10:49:57;;;;;;;10.70;5.20;;;;;;;10.31;43.77;100975.41;102529;279;114747;-58
2023/03/16 10:52:43;;;;;;;8.70;5.40;;;;;;;10.77;44.16;100974.91;102519;279;92967;-58
2023/03/16 10:55:28;;;;;;;8.90;4.60;;;;;;;11.21;43.98;100966.85;102531;279;96888;-59
2023/03/16 10:58:10;;;;;;;9.00;3.60;;;;;;;11.30;43.74;100966.55;102487;279;121080;-59
2023/03/16 11:00:52;;;;;;;9.70;3.80;;;;;;;11.42;42.49;100968.42;102544;279;105086;-61
2023/03/16 11:03:41;;;;;;;6.70;3.00;;;;;;;11.37;42.26;100964.16;102493;279;113711;-61
2023/03/16 11:06:29;;;;;;;6.30;2.40;;;;;;;11.11;42.45;100967.56;102464;279;93318;-57
2023/03/16 11:09:21;;;;;;;6.20;2.90;;;;;;;10.97;42.66;100968.36;102387;279;96943;-58
2023/03/16 11:12:12;;;;;;;7.00;2.80;;;;;;;10.87;42.76;100966.30;102557;279;118787;-61
2023/03/16 11:14:49;;;;;;;6.70;3.40;;;;;;;10.70;42.92;100967.84;102545;279;105327;-61
2023/03/16 11:17:38;;;;;;;8.30;3.40;;;;;;;10.47;43.49;100968.04;102512;279;113749;-61
2023/03/16 11:20:24;;;;;;;6.30;3.40;;;;;;;10.22;43.74;100970.20;102519;279;93236;-61
2023/03/16 11:23:10;;;;;;;9.50;4.30;;;;;;;9.93;44.18;100973.77;102521;279;97398;-62
2023/03/16 11:25:57;;;;;;;9.70;4.50;;;;;;;9.68;44.74;100978.23;102563;279;120236;-58
2023/03/16 11:28:40;;;;;;;8.40;4.70;;;;;;;9.47;44.92;100981.09;102525;267;103367;-57
2023/03/16 11:31:32;;;;;;;11.50;4.70;;;;;;;9.20;45.61;100978.34;102519;278;114315;-62
2023/03/16 11:34:32;;;;;;;10.20;4.50;;;;;;;8.99;46.24;100979.03;102501;279;93977;-60
2023/03/16 11:37:27;;;;;;;10.20;5.00;;;;;;;8.90;46.64;100983.27;102550;279;97239;-56
2023/03/16 11:40:28;;;;;;;9.70;5.00;;;;;;;8.83;47.17;100979.80;102488;279;120053;-61
2023/03/16 11:43:21;;;;;;;13.30;5.20;;;;;;;8.77;47.69;100979.95;102514;279;105191;-61
2023/03/16 11:46:14;;;;;;;9.50;4.60;;;;;;;8.80;47.96;100983.36;102549;279;113748;-63
2023/03/16 11:49:11;;;;;;;11.40;5.10;;;;;;;8.81;48.10;100982.89;102492;279;93464;-62
2023/03/16 11:52:00;;;;;;;10.00;4.20;;;;;;;8.73;48.21;100984.55;102537;279;96408;-61
2023/03/16 11:54:51;;;;;;;8.80;4.20;;;;;;;8.67;48.23;100984.46;102552;279;120890;-61
2023/03/16 11:57:46;;;;;;;10.60;4.50;;;;;;;8.50;48.13;100987.92;102500;279;104769;-56
2023/03/16 12:00:37;;;;;;;12.50;4.80;;;;;;;8.36;48.06;100989.57;102541;279;113391;-58
2023/03/16 12:03:57;;;;;;;12.10;4.50;;;;;;;8.25;48.30;100988.86;102521;279;91987;-58
2023/03/16 12:07:03;;;;;;;14.30;5.10;;;;;;;8.06;48.75;100988.96;102580;279;96244;-56
2023/03/16 12:10:21;;;;;;;12.90;5.80;;;;;;;8.04;49.28;100990.76;102496;279;119645;-57
2023/03/16 12:13:17;;;;;;;10.40;4.60;;;;;;;7.96;49.35;100991.83;102510;279;105351;-57
2023/03/16 12:16:00;;;;;;;9.10;5.00;;;;;;;7.82;49.54;100990.88;102525;279;113342;-62
2023/03/16 12:18:47;;;;;;;8.40;4.60;;;;;;;7.81;49.52;100995.17;102530;279;92814;-62